sensor_id;sensor_type;location;lat;lon;timestamp;P1;durP1;ratioP1;P2;durP2;ratioP2
23743;SDS011;12052;53.478;10.182;2023-06-22T00:01:55;2.75;;;1.80;;
23743;SDS011;12052;53.478;10.182;2023-06-22T00:04:21;2.33;;;1.70;;
23743;SDS011;12052;53.478;10.182;2023-06-22T00:06:47;3.83;;;2.38;;
23743;SDS011;12052;53.478;10.182;2023-06-22T00:09:12;3.58;;;2.20;;
23743;SDS011;12052;53.478;10.182;2023-06-22T00:11:38;3.15;;;2.22;;
23743;SDS011;12052;53.478;10.182;2023-06-22T00:14:04;3.28;;;2.30;;
23743;SDS011;12052;53.478;10.182;2023-06-22T00:16:33;2.45;;;1.90;;
23743;SDS011;12052;53.478;10.182;2023-06-22T00:18:59;3.13;;;2.00;;
23743;SDS011;12052;53.478;10.182;2023-06-22T00:21:26;2.78;;;2.05;;
23743;SDS011;12052;53.478;10.182;2023-06-22T00:23:52;3.00;;;2.10;;
23743;SDS011;12052;53.478;10.182;2023-06-22T00:26:18;4.05;;;2.38;;
23743;SDS011;12052;53.478;10.182;2023-06-22T00:28:44;2.58;;;1.80;;
23743;SDS011;12052;53.478;10.182;2023-06-22T00:31:09;3.53;;;2.00;;
23743;SDS011;12052;53.478;10.182;2023-06-22T00:33:35;3.53;;;2.17;;
23743;SDS011;12052;53.478;10.182;2023-06-22T00:36:01;2.75;;;1.90;;
23743;SDS011;12052;53.478;10.182;2023-06-22T00:38:28;3.45;;;2.33;;
23743;SDS011;12052;53.478;10.182;2023-06-22T00:40:53;3.35;;;2.00;;
23743;SDS011;12052;53.478;10.182;2023-06-22T00:43:19;4.45;;;2.20;;
23743;SDS011;12052;53.478;10.182;2023-06-22T00:45:45;3.00;;;1.92;;
23743;SDS011;12052;53.478;10.182;2023-06-22T00:48:10;4.18;;;2.00;;
23743;SDS011;12052;53.478;10.182;2023-06-22T00:50:37;2.92;;;2.08;;
23743;SDS011;12052;53.478;10.182;2023-06-22T00:53:08;2.75;;;1.92;;
23743;SDS011;12052;53.478;10.182;2023-06-22T00:55:38;3.70;;;2.25;;
23743;SDS011;12052;53.478;10.182;2023-06-22T00:58:16;5.45;;;2.45;;
23743;SDS011;12052;53.478;10.182;2023-06-22T01:00:43;3.80;;;2.10;;
23743;SDS011;12052;53.478;10.182;2023-06-22T01:03:08;4.15;;;2.40;;
23743;SDS011;12052;53.478;10.182;2023-06-22T01:05:34;4.82;;;2.78;;
23743;SDS011;12052;53.478;10.182;2023-06-22T01:10:44;5.60;;;2.28;;
23743;SDS011;12052;53.478;10.182;2023-06-22T01:13:28;5.55;;;2.83;;
23743;SDS011;12052;53.478;10.182;2023-06-22T01:16:01;4.68;;;2.17;;
23743;SDS011;12052;53.478;10.182;2023-06-22T01:18:32;6.15;;;2.42;;
23743;SDS011;12052;53.478;10.182;2023-06-22T01:21:01;2.65;;;1.95;;
23743;SDS011;12052;53.478;10.182;2023-06-22T01:23:36;3.53;;;1.98;;
23743;SDS011;12052;53.478;10.182;2023-06-22T01:26:22;3.28;;;2.20;;
23743;SDS011;12052;53.478;10.182;2023-06-22T01:28:57;4.35;;;2.38;;
23743;SDS011;12052;53.478;10.182;2023-06-22T01:31:26;4.22;;;2.38;;
23743;SDS011;12052;53.478;10.182;2023-06-22T01:33:55;4.15;;;2.50;;
23743;SDS011;12052;53.478;10.182;2023-06-22T01:36:24;3.58;;;2.45;;
23743;SDS011;12052;53.478;10.182;2023-06-22T01:38:51;3.70;;;2.50;;
23743;SDS011;12052;53.478;10.182;2023-06-22T01:41:19;7.32;;;2.40;;
23743;SDS011;12052;53.478;10.182;2023-06-22T01:43:45;3.47;;;2.35;;
23743;SDS011;12052;53.478;10.182;2023-06-22T01:46:12;2.78;;;2.30;;
23743;SDS011;12052;53.478;10.182;2023-06-22T01:48:39;5.97;;;2.35;;
23743;SDS011;12052;53.478;10.182;2023-06-22T01:51:05;4.15;;;2.30;;
23743;SDS011;12052;53.478;10.182;2023-06-22T01:53:31;7.05;;;2.58;;
23743;SDS011;12052;53.478;10.182;2023-06-22T01:55:57;6.13;;;2.92;;
23743;SDS011;12052;53.478;10.182;2023-06-22T01:58:26;3.92;;;2.63;;
23743;SDS011;12052;53.478;10.182;2023-06-22T02:01:12;5.30;;;2.70;;
23743;SDS011;12052;53.478;10.182;2023-06-22T02:03:48;5.78;;;2.58;;
23743;SDS011;12052;53.478;10.182;2023-06-22T02:06:23;3.92;;;2.47;;
23743;SDS011;12052;53.478;10.182;2023-06-22T02:08:57;2.35;;;1.88;;
23743;SDS011;12052;53.478;10.182;2023-06-22T02:11:26;3.70;;;2.30;;
23743;SDS011;12052;53.478;10.182;2023-06-22T02:13:53;3.03;;;2.17;;
23743;SDS011;12052;53.478;10.182;2023-06-22T02:16:21;4.78;;;2.60;;
23743;SDS011;12052;53.478;10.182;2023-06-22T02:18:48;4.28;;;2.45;;
23743;SDS011;12052;53.478;10.182;2023-06-22T02:21:20;3.97;;;2.78;;
23743;SDS011;12052;53.478;10.182;2023-06-22T02:23:46;3.92;;;2.35;;
23743;SDS011;12052;53.478;10.182;2023-06-22T02:26:12;3.53;;;2.65;;
23743;SDS011;12052;53.478;10.182;2023-06-22T02:28:38;5.65;;;2.80;;
23743;SDS011;12052;53.478;10.182;2023-06-22T02:31:03;4.60;;;2.40;;
23743;SDS011;12052;53.478;10.182;2023-06-22T02:33:29;4.55;;;2.90;;
23743;SDS011;12052;53.478;10.182;2023-06-22T02:35:55;3.13;;;2.35;;
23743;SDS011;12052;53.478;10.182;2023-06-22T02:38:20;3.72;;;2.40;;
23743;SDS011;12052;53.478;10.182;2023-06-22T02:40:46;3.65;;;2.33;;
23743;SDS011;12052;53.478;10.182;2023-06-22T02:43:12;4.47;;;2.58;;
23743;SDS011;12052;53.478;10.182;2023-06-22T02:45:38;4.47;;;2.78;;
23743;SDS011;12052;53.478;10.182;2023-06-22T02:48:03;4.57;;;2.80;;
23743;SDS011;12052;53.478;10.182;2023-06-22T02:50:30;3.42;;;2.38;;
23743;SDS011;12052;53.478;10.182;2023-06-22T02:52:55;5.95;;;2.90;;
23743;SDS011;12052;53.478;10.182;2023-06-22T02:55:21;3.45;;;2.40;;
23743;SDS011;12052;53.478;10.182;2023-06-22T02:57:46;5.10;;;2.25;;
23743;SDS011;12052;53.478;10.182;2023-06-22T03:00:13;5.63;;;2.72;;
23743;SDS011;12052;53.478;10.182;2023-06-22T03:02:46;3.60;;;2.42;;
23743;SDS011;12052;53.478;10.182;2023-06-22T03:05:12;3.63;;;2.65;;
23743;SDS011;12052;53.478;10.182;2023-06-22T03:07:40;3.05;;;2.20;;
23743;SDS011;12052;53.478;10.182;2023-06-22T03:10:07;5.55;;;2.50;;
23743;SDS011;12052;53.478;10.182;2023-06-22T03:12:40;4.95;;;2.97;;
23743;SDS011;12052;53.478;10.182;2023-06-22T03:15:07;4.45;;;2.60;;
23743;SDS011;12052;53.478;10.182;2023-06-22T03:17:34;4.43;;;3.25;;
23743;SDS011;12052;53.478;10.182;2023-06-22T03:20:00;8.10;;;3.55;;
23743;SDS011;12052;53.478;10.182;2023-06-22T03:22:34;6.60;;;3.00;;
23743;SDS011;12052;53.478;10.182;2023-06-22T03:27:39;4.20;;;2.63;;
23743;SDS011;12052;53.478;10.182;2023-06-22T03:30:06;6.20;;;3.00;;
23743;SDS011;12052;53.478;10.182;2023-06-22T03:32:33;3.70;;;2.45;;
23743;SDS011;12052;53.478;10.182;2023-06-22T03:34:59;5.18;;;3.20;;
23743;SDS011;12052;53.478;10.182;2023-06-22T03:37:25;6.32;;;3.60;;
23743;SDS011;12052;53.478;10.182;2023-06-22T03:39:51;4.93;;;2.88;;
23743;SDS011;12052;53.478;10.182;2023-06-22T03:42:17;4.93;;;3.40;;
23743;SDS011;12052;53.478;10.182;2023-06-22T03:44:42;5.43;;;3.05;;
23743;SDS011;12052;53.478;10.182;2023-06-22T03:47:08;5.05;;;3.65;;
23743;SDS011;12052;53.478;10.182;2023-06-22T03:49:34;6.80;;;3.28;;
23743;SDS011;12052;53.478;10.182;2023-06-22T03:52:00;6.55;;;3.38;;
23743;SDS011;12052;53.478;10.182;2023-06-22T03:54:27;5.15;;;3.33;;
23743;SDS011;12052;53.478;10.182;2023-06-22T03:56:53;7.38;;;3.63;;
23743;SDS011;12052;53.478;10.182;2023-06-22T03:59:19;5.95;;;3.80;;
23743;SDS011;12052;53.478;10.182;2023-06-22T04:01:44;5.47;;;3.13;;
23743;SDS011;12052;53.478;10.182;2023-06-22T04:04:11;5.75;;;3.45;;
23743;SDS011;12052;53.478;10.182;2023-06-22T04:06:37;5.05;;;2.90;;
23743;SDS011;12052;53.478;10.182;2023-06-22T04:09:03;4.05;;;2.97;;
23743;SDS011;12052;53.478;10.182;2023-06-22T04:11:30;6.88;;;3.38;;
23743;SDS011;12052;53.478;10.182;2023-06-22T04:13:55;5.03;;;3.70;;
23743;SDS011;12052;53.478;10.182;2023-06-22T04:16:21;6.47;;;3.63;;
23743;SDS011;12052;53.478;10.182;2023-06-22T04:18:47;4.85;;;3.28;;
23743;SDS011;12052;53.478;10.182;2023-06-22T04:21:12;4.57;;;3.17;;
23743;SDS011;12052;53.478;10.182;2023-06-22T04:23:38;3.47;;;2.63;;
23743;SDS011;12052;53.478;10.182;2023-06-22T04:26:04;3.60;;;2.70;;
23743;SDS011;12052;53.478;10.182;2023-06-22T04:28:29;4.57;;;3.35;;
23743;SDS011;12052;53.478;10.182;2023-06-22T04:31:00;4.30;;;2.85;;
23743;SDS011;12052;53.478;10.182;2023-06-22T04:33:27;6.45;;;2.78;;
23743;SDS011;12052;53.478;10.182;2023-06-22T04:35:54;4.57;;;2.75;;
23743;SDS011;12052;53.478;10.182;2023-06-22T04:38:22;5.20;;;3.13;;
23743;SDS011;12052;53.478;10.182;2023-06-22T04:40:48;5.57;;;2.63;;
23743;SDS011;12052;53.478;10.182;2023-06-22T04:43:14;4.28;;;3.00;;
23743;SDS011;12052;53.478;10.182;2023-06-22T04:45:40;5.05;;;3.05;;
23743;SDS011;12052;53.478;10.182;2023-06-22T04:48:05;5.13;;;3.15;;
23743;SDS011;12052;53.478;10.182;2023-06-22T04:50:31;4.63;;;2.63;;
23743;SDS011;12052;53.478;10.182;2023-06-22T04:52:57;7.43;;;3.72;;
23743;SDS011;12052;53.478;10.182;2023-06-22T04:55:23;6.13;;;3.42;;
23743;SDS011;12052;53.478;10.182;2023-06-22T04:57:50;6.28;;;2.78;;
23743;SDS011;12052;53.478;10.182;2023-06-22T05:00:20;4.30;;;2.65;;
23743;SDS011;12052;53.478;10.182;2023-06-22T05:02:48;5.78;;;2.65;;
23743;SDS011;12052;53.478;10.182;2023-06-22T05:05:14;4.55;;;3.03;;
23743;SDS011;12052;53.478;10.182;2023-06-22T05:07:44;6.82;;;2.75;;
23743;SDS011;12052;53.478;10.182;2023-06-22T05:10:13;4.22;;;2.65;;
23743;SDS011;12052;53.478;10.182;2023-06-22T05:12:39;4.13;;;2.53;;
23743;SDS011;12052;53.478;10.182;2023-06-22T05:15:06;5.05;;;3.30;;
23743;SDS011;12052;53.478;10.182;2023-06-22T05:17:32;5.38;;;3.35;;
23743;SDS011;12052;53.478;10.182;2023-06-22T05:19:58;4.07;;;2.70;;
23743;SDS011;12052;53.478;10.182;2023-06-22T05:22:23;6.18;;;3.50;;
23743;SDS011;12052;53.478;10.182;2023-06-22T05:24:49;5.47;;;3.20;;
23743;SDS011;12052;53.478;10.182;2023-06-22T05:27:14;5.35;;;3.25;;
23743;SDS011;12052;53.478;10.182;2023-06-22T05:29:40;4.32;;;2.92;;
23743;SDS011;12052;53.478;10.182;2023-06-22T05:32:07;3.85;;;2.35;;
23743;SDS011;12052;53.478;10.182;2023-06-22T05:34:33;6.00;;;2.78;;
23743;SDS011;12052;53.478;10.182;2023-06-22T05:36:59;4.85;;;2.30;;
23743;SDS011;12052;53.478;10.182;2023-06-22T05:39:24;5.63;;;3.20;;
23743;SDS011;12052;53.478;10.182;2023-06-22T05:41:51;5.18;;;2.80;;
23743;SDS011;12052;53.478;10.182;2023-06-22T05:44:17;5.40;;;3.13;;
23743;SDS011;12052;53.478;10.182;2023-06-22T05:46:43;5.95;;;2.80;;
23743;SDS011;12052;53.478;10.182;2023-06-22T05:49:11;4.22;;;2.80;;
23743;SDS011;12052;53.478;10.182;2023-06-22T05:51:38;3.80;;;2.80;;
23743;SDS011;12052;53.478;10.182;2023-06-22T05:54:04;5.13;;;2.50;;
23743;SDS011;12052;53.478;10.182;2023-06-22T05:56:29;4.13;;;2.20;;
23743;SDS011;12052;53.478;10.182;2023-06-22T05:58:55;5.40;;;2.90;;
23743;SDS011;12052;53.478;10.182;2023-06-22T06:01:21;5.10;;;2.55;;
23743;SDS011;12052;53.478;10.182;2023-06-22T06:03:46;4.32;;;2.72;;
23743;SDS011;12052;53.478;10.182;2023-06-22T06:06:13;3.20;;;2.22;;
23743;SDS011;12052;53.478;10.182;2023-06-22T06:08:39;3.00;;;2.00;;
23743;SDS011;12052;53.478;10.182;2023-06-22T06:11:05;4.72;;;2.15;;
23743;SDS011;12052;53.478;10.182;2023-06-22T06:13:30;2.80;;;1.90;;
23743;SDS011;12052;53.478;10.182;2023-06-22T06:15:56;4.18;;;1.90;;
23743;SDS011;12052;53.478;10.182;2023-06-22T06:18:22;2.88;;;2.00;;
23743;SDS011;12052;53.478;10.182;2023-06-22T06:20:48;3.40;;;2.17;;
23743;SDS011;12052;53.478;10.182;2023-06-22T06:23:13;4.80;;;2.10;;
23743;SDS011;12052;53.478;10.182;2023-06-22T06:25:39;3.53;;;2.25;;
23743;SDS011;12052;53.478;10.182;2023-06-22T06:28:05;3.80;;;2.20;;
23743;SDS011;12052;53.478;10.182;2023-06-22T06:30:30;6.38;;;2.05;;
23743;SDS011;12052;53.478;10.182;2023-06-22T06:32:56;4.72;;;2.08;;
23743;SDS011;12052;53.478;10.182;2023-06-22T06:35:22;2.63;;;2.05;;
23743;SDS011;12052;53.478;10.182;2023-06-22T06:37:48;3.15;;;2.00;;
23743;SDS011;12052;53.478;10.182;2023-06-22T06:40:15;5.43;;;2.25;;
23743;SDS011;12052;53.478;10.182;2023-06-22T06:42:43;4.65;;;1.95;;
23743;SDS011;12052;53.478;10.182;2023-06-22T06:45:20;4.22;;;2.20;;
23743;SDS011;12052;53.478;10.182;2023-06-22T06:47:50;3.05;;;2.20;;
23743;SDS011;12052;53.478;10.182;2023-06-22T06:50:17;5.28;;;2.20;;
23743;SDS011;12052;53.478;10.182;2023-06-22T06:52:43;3.50;;;2.15;;
23743;SDS011;12052;53.478;10.182;2023-06-22T06:55:09;3.58;;;2.08;;
23743;SDS011;12052;53.478;10.182;2023-06-22T06:57:37;3.45;;;2.13;;
23743;SDS011;12052;53.478;10.182;2023-06-22T07:00:04;4.40;;;1.83;;
23743;SDS011;12052;53.478;10.182;2023-06-22T07:02:37;4.00;;;2.25;;
23743;SDS011;12052;53.478;10.182;2023-06-22T07:05:04;3.08;;;2.10;;
23743;SDS011;12052;53.478;10.182;2023-06-22T07:07:30;2.28;;;1.73;;
23743;SDS011;12052;53.478;10.182;2023-06-22T07:09:56;1.98;;;1.60;;
23743;SDS011;12052;53.478;10.182;2023-06-22T07:12:22;3.70;;;2.33;;
23743;SDS011;12052;53.478;10.182;2023-06-22T07:14:48;2.42;;;1.60;;
23743;SDS011;12052;53.478;10.182;2023-06-22T07:17:15;4.53;;;1.55;;
23743;SDS011;12052;53.478;10.182;2023-06-22T07:19:40;1.85;;;1.48;;
23743;SDS011;12052;53.478;10.182;2023-06-22T07:22:07;5.53;;;1.80;;
23743;SDS011;12052;53.478;10.182;2023-06-22T07:24:32;3.47;;;1.75;;
23743;SDS011;12052;53.478;10.182;2023-06-22T07:26:58;2.58;;;1.88;;
23743;SDS011;12052;53.478;10.182;2023-06-22T07:29:24;3.95;;;1.90;;
23743;SDS011;12052;53.478;10.182;2023-06-22T07:31:51;4.03;;;1.55;;
23743;SDS011;12052;53.478;10.182;2023-06-22T07:34:17;2.45;;;1.88;;
23743;SDS011;12052;53.478;10.182;2023-06-22T07:36:43;2.55;;;1.95;;
23743;SDS011;12052;53.478;10.182;2023-06-22T07:39:09;2.78;;;1.73;;
23743;SDS011;12052;53.478;10.182;2023-06-22T07:41:34;2.53;;;1.60;;
23743;SDS011;12052;53.478;10.182;2023-06-22T07:44:00;2.78;;;1.88;;
23743;SDS011;12052;53.478;10.182;2023-06-22T07:46:26;2.72;;;1.80;;
23743;SDS011;12052;53.478;10.182;2023-06-22T07:48:55;1.83;;;1.23;;
23743;SDS011;12052;53.478;10.182;2023-06-22T07:51:21;2.42;;;1.83;;
23743;SDS011;12052;53.478;10.182;2023-06-22T07:53:46;2.90;;;1.58;;
23743;SDS011;12052;53.478;10.182;2023-06-22T07:56:12;2.65;;;1.60;;
23743;SDS011;12052;53.478;10.182;2023-06-22T07:58:38;2.72;;;1.60;;
23743;SDS011;12052;53.478;10.182;2023-06-22T08:01:04;2.30;;;1.42;;
23743;SDS011;12052;53.478;10.182;2023-06-22T08:03:31;3.75;;;1.88;;
23743;SDS011;12052;53.478;10.182;2023-06-22T08:05:57;2.47;;;1.80;;
23743;SDS011;12052;53.478;10.182;2023-06-22T08:08:23;4.43;;;1.63;;
23743;SDS011;12052;53.478;10.182;2023-06-22T08:10:48;2.10;;;1.73;;
23743;SDS011;12052;53.478;10.182;2023-06-22T08:13:14;3.80;;;2.17;;
23743;SDS011;12052;53.478;10.182;2023-06-22T08:15:39;4.30;;;1.77;;
23743;SDS011;12052;53.478;10.182;2023-06-22T08:18:05;3.97;;;1.80;;
23743;SDS011;12052;53.478;10.182;2023-06-22T08:20:31;1.77;;;1.17;;
23743;SDS011;12052;53.478;10.182;2023-06-22T08:22:57;2.35;;;1.70;;
23743;SDS011;12052;53.478;10.182;2023-06-22T08:25:29;2.53;;;1.83;;
23743;SDS011;12052;53.478;10.182;2023-06-22T08:27:55;2.70;;;1.88;;
23743;SDS011;12052;53.478;10.182;2023-06-22T08:30:21;2.17;;;1.70;;
23743;SDS011;12052;53.478;10.182;2023-06-22T08:32:46;4.47;;;1.77;;
23743;SDS011;12052;53.478;10.182;2023-06-22T08:35:12;2.40;;;1.45;;
23743;SDS011;12052;53.478;10.182;2023-06-22T08:37:37;2.00;;;1.67;;
23743;SDS011;12052;53.478;10.182;2023-06-22T08:40:04;2.85;;;1.90;;
23743;SDS011;12052;53.478;10.182;2023-06-22T08:42:33;2.05;;;1.45;;
23743;SDS011;12052;53.478;10.182;2023-06-22T08:44:59;2.63;;;1.58;;
23743;SDS011;12052;53.478;10.182;2023-06-22T08:47:27;3.03;;;1.70;;
23743;SDS011;12052;53.478;10.182;2023-06-22T08:49:53;4.25;;;1.80;;
23743;SDS011;12052;53.478;10.182;2023-06-22T08:52:19;2.45;;;1.50;;
23743;SDS011;12052;53.478;10.182;2023-06-22T08:54:45;3.17;;;1.80;;
23743;SDS011;12052;53.478;10.182;2023-06-22T08:57:11;2.65;;;1.27;;
23743;SDS011;12052;53.478;10.182;2023-06-22T08:59:37;3.25;;;1.73;;
23743;SDS011;12052;53.478;10.182;2023-06-22T09:02:02;2.05;;;1.60;;
23743;SDS011;12052;53.478;10.182;2023-06-22T09:04:28;2.10;;;1.50;;
23743;SDS011;12052;53.478;10.182;2023-06-22T09:06:54;1.85;;;1.60;;
23743;SDS011;12052;53.478;10.182;2023-06-22T09:09:20;2.65;;;1.63;;
23743;SDS011;12052;53.478;10.182;2023-06-22T09:11:46;2.00;;;1.52;;
23743;SDS011;12052;53.478;10.182;2023-06-22T09:14:12;2.58;;;1.58;;
23743;SDS011;12052;53.478;10.182;2023-06-22T09:16:37;2.70;;;1.88;;
23743;SDS011;12052;53.478;10.182;2023-06-22T09:19:03;5.93;;;1.85;;
23743;SDS011;12052;53.478;10.182;2023-06-22T09:21:29;3.72;;;1.80;;
23743;SDS011;12052;53.478;10.182;2023-06-22T09:23:54;3.42;;;2.00;;
23743;SDS011;12052;53.478;10.182;2023-06-22T09:26:20;2.42;;;1.88;;
23743;SDS011;12052;53.478;10.182;2023-06-22T09:28:47;3.03;;;1.67;;
23743;SDS011;12052;53.478;10.182;2023-06-22T09:31:13;1.88;;;1.35;;
23743;SDS011;12052;53.478;10.182;2023-06-22T09:33:39;3.85;;;1.90;;
23743;SDS011;12052;53.478;10.182;2023-06-22T09:36:06;2.88;;;1.60;;
23743;SDS011;12052;53.478;10.182;2023-06-22T09:38:35;2.25;;;1.67;;
23743;SDS011;12052;53.478;10.182;2023-06-22T09:41:02;3.80;;;1.67;;
23743;SDS011;12052;53.478;10.182;2023-06-22T09:43:27;2.33;;;1.60;;
23743;SDS011;12052;53.478;10.182;2023-06-22T09:45:53;3.60;;;1.75;;
23743;SDS011;12052;53.478;10.182;2023-06-22T09:48:19;2.75;;;1.73;;
23743;SDS011;12052;53.478;10.182;2023-06-22T09:50:44;3.50;;;1.92;;
23743;SDS011;12052;53.478;10.182;2023-06-22T09:53:10;4.63;;;2.20;;
23743;SDS011;12052;53.478;10.182;2023-06-22T09:55:35;2.25;;;1.80;;
23743;SDS011;12052;53.478;10.182;2023-06-22T09:58:01;3.83;;;2.33;;
23743;SDS011;12052;53.478;10.182;2023-06-22T10:00:27;3.95;;;1.98;;
23743;SDS011;12052;53.478;10.182;2023-06-22T10:02:52;3.28;;;1.98;;
23743;SDS011;12052;53.478;10.182;2023-06-22T10:05:18;1.92;;;1.52;;
23743;SDS011;12052;53.478;10.182;2023-06-22T10:07:44;2.30;;;1.50;;
23743;SDS011;12052;53.478;10.182;2023-06-22T10:10:10;2.58;;;1.80;;
23743;SDS011;12052;53.478;10.182;2023-06-22T10:12:42;2.15;;;1.77;;
23743;SDS011;12052;53.478;10.182;2023-06-22T10:15:11;3.58;;;2.22;;
23743;SDS011;12052;53.478;10.182;2023-06-22T10:17:37;2.33;;;1.75;;
23743;SDS011;12052;53.478;10.182;2023-06-22T10:20:02;3.53;;;1.83;;
23743;SDS011;12052;53.478;10.182;2023-06-22T10:22:41;4.35;;;2.00;;
23743;SDS011;12052;53.478;10.182;2023-06-22T10:25:08;3.35;;;1.90;;
23743;SDS011;12052;53.478;10.182;2023-06-22T10:27:35;2.58;;;1.52;;
23743;SDS011;12052;53.478;10.182;2023-06-22T10:30:00;3.22;;;2.28;;
23743;SDS011;12052;53.478;10.182;2023-06-22T10:32:27;2.85;;;2.25;;
23743;SDS011;12052;53.478;10.182;2023-06-22T10:34:55;3.55;;;1.70;;
23743;SDS011;12052;53.478;10.182;2023-06-22T10:37:21;2.20;;;1.90;;
23743;SDS011;12052;53.478;10.182;2023-06-22T10:39:47;3.35;;;2.17;;
23743;SDS011;12052;53.478;10.182;2023-06-22T10:42:12;3.08;;;1.83;;
23743;SDS011;12052;53.478;10.182;2023-06-22T10:44:38;3.20;;;2.30;;
23743;SDS011;12052;53.478;10.182;2023-06-22T10:47:06;2.97;;;2.00;;
23743;SDS011;12052;53.478;10.182;2023-06-22T10:49:32;3.17;;;2.33;;
23743;SDS011;12052;53.478;10.182;2023-06-22T10:51:57;3.92;;;2.40;;
23743;SDS011;12052;53.478;10.182;2023-06-22T10:54:23;2.38;;;1.95;;
23743;SDS011;12052;53.478;10.182;2023-06-22T10:56:48;3.55;;;2.45;;
23743;SDS011;12052;53.478;10.182;2023-06-22T10:59:14;4.05;;;2.33;;
23743;SDS011;12052;53.478;10.182;2023-06-22T11:01:40;4.40;;;2.30;;
23743;SDS011;12052;53.478;10.182;2023-06-22T11:04:05;2.67;;;2.10;;
23743;SDS011;12052;53.478;10.182;2023-06-22T11:06:31;2.40;;;2.20;;
23743;SDS011;12052;53.478;10.182;2023-06-22T11:08:56;3.38;;;2.65;;
23743;SDS011;12052;53.478;10.182;2023-06-22T11:11:23;5.07;;;2.50;;
23743;SDS011;12052;53.478;10.182;2023-06-22T11:13:50;3.67;;;2.33;;
23743;SDS011;12052;53.478;10.182;2023-06-22T11:16:15;2.97;;;2.35;;
23743;SDS011;12052;53.478;10.182;2023-06-22T11:18:41;3.03;;;2.13;;
23743;SDS011;12052;53.478;10.182;2023-06-22T11:21:06;2.70;;;2.30;;
23743;SDS011;12052;53.478;10.182;2023-06-22T11:23:32;2.65;;;2.30;;
23743;SDS011;12052;53.478;10.182;2023-06-22T11:25:57;3.63;;;2.42;;
23743;SDS011;12052;53.478;10.182;2023-06-22T11:28:23;3.67;;;2.55;;
23743;SDS011;12052;53.478;10.182;2023-06-22T11:30:49;4.10;;;3.38;;
23743;SDS011;12052;53.478;10.182;2023-06-22T11:33:14;4.18;;;2.67;;
23743;SDS011;12052;53.478;10.182;2023-06-22T11:35:40;4.25;;;2.58;;
23743;SDS011;12052;53.478;10.182;2023-06-22T11:38:05;4.45;;;2.67;;
23743;SDS011;12052;53.478;10.182;2023-06-22T11:40:32;3.67;;;2.65;;
23743;SDS011;12052;53.478;10.182;2023-06-22T11:42:58;6.40;;;2.90;;
23743;SDS011;12052;53.478;10.182;2023-06-22T11:45:23;3.90;;;2.67;;
23743;SDS011;12052;53.478;10.182;2023-06-22T11:47:49;3.63;;;2.63;;
23743;SDS011;12052;53.478;10.182;2023-06-22T11:50:15;4.57;;;3.30;;
23743;SDS011;12052;53.478;10.182;2023-06-22T11:52:40;3.65;;;2.58;;
23743;SDS011;12052;53.478;10.182;2023-06-22T11:55:06;3.00;;;2.70;;
23743;SDS011;12052;53.478;10.182;2023-06-22T11:57:33;6.38;;;3.65;;
23743;SDS011;12052;53.478;10.182;2023-06-22T12:00:00;4.53;;;3.55;;
23743;SDS011;12052;53.478;10.182;2023-06-22T12:02:26;5.00;;;2.65;;
23743;SDS011;12052;53.478;10.182;2023-06-22T12:04:52;4.25;;;2.83;;
23743;SDS011;12052;53.478;10.182;2023-06-22T12:07:20;3.42;;;2.78;;
23743;SDS011;12052;53.478;10.182;2023-06-22T12:09:46;4.82;;;2.80;;
23743;SDS011;12052;53.478;10.182;2023-06-22T12:12:11;4.97;;;2.85;;
23743;SDS011;12052;53.478;10.182;2023-06-22T12:14:37;5.75;;;2.58;;
23743;SDS011;12052;53.478;10.182;2023-06-22T12:17:03;5.78;;;3.13;;
23743;SDS011;12052;53.478;10.182;2023-06-22T12:19:28;3.97;;;2.97;;
23743;SDS011;12052;53.478;10.182;2023-06-22T12:21:54;6.28;;;3.10;;
23743;SDS011;12052;53.478;10.182;2023-06-22T12:24:19;4.45;;;2.78;;
23743;SDS011;12052;53.478;10.182;2023-06-22T12:26:45;6.43;;;3.33;;
23743;SDS011;12052;53.478;10.182;2023-06-22T12:29:11;4.55;;;2.92;;
23743;SDS011;12052;53.478;10.182;2023-06-22T12:31:36;7.95;;;3.00;;
23743;SDS011;12052;53.478;10.182;2023-06-22T12:34:04;4.90;;;3.30;;
23743;SDS011;12052;53.478;10.182;2023-06-22T12:36:30;4.25;;;3.35;;
23743;SDS011;12052;53.478;10.182;2023-06-22T12:38:55;5.18;;;3.20;;
23743;SDS011;12052;53.478;10.182;2023-06-22T12:41:21;4.60;;;3.47;;
23743;SDS011;12052;53.478;10.182;2023-06-22T12:43:46;4.30;;;3.17;;
23743;SDS011;12052;53.478;10.182;2023-06-22T12:46:12;4.05;;;2.60;;
23743;SDS011;12052;53.478;10.182;2023-06-22T12:48:37;5.78;;;3.67;;
23743;SDS011;12052;53.478;10.182;2023-06-22T12:51:07;3.40;;;2.78;;
23743;SDS011;12052;53.478;10.182;2023-06-22T12:53:34;3.50;;;2.63;;
23743;SDS011;12052;53.478;10.182;2023-06-22T12:55:59;4.70;;;3.22;;
23743;SDS011;12052;53.478;10.182;2023-06-22T12:58:25;5.30;;;3.17;;
23743;SDS011;12052;53.478;10.182;2023-06-22T13:00:50;5.80;;;3.28;;
23743;SDS011;12052;53.478;10.182;2023-06-22T13:03:16;5.63;;;3.70;;
23743;SDS011;12052;53.478;10.182;2023-06-22T13:05:41;5.13;;;3.25;;
23743;SDS011;12052;53.478;10.182;2023-06-22T13:08:07;4.55;;;2.80;;
23743;SDS011;12052;53.478;10.182;2023-06-22T13:10:33;4.88;;;3.45;;
23743;SDS011;12052;53.478;10.182;2023-06-22T13:12:59;4.25;;;3.40;;
23743;SDS011;12052;53.478;10.182;2023-06-22T13:15:25;4.18;;;2.97;;
23743;SDS011;12052;53.478;10.182;2023-06-22T13:17:52;6.40;;;3.50;;
23743;SDS011;12052;53.478;10.182;2023-06-22T13:20:18;6.38;;;3.40;;
23743;SDS011;12052;53.478;10.182;2023-06-22T13:22:44;5.90;;;3.30;;
23743;SDS011;12052;53.478;10.182;2023-06-22T13:25:10;3.35;;;2.58;;
23743;SDS011;12052;53.478;10.182;2023-06-22T13:27:40;4.05;;;3.00;;
23743;SDS011;12052;53.478;10.182;2023-06-22T13:30:06;8.43;;;3.10;;
23743;SDS011;12052;53.478;10.182;2023-06-22T13:32:32;5.00;;;3.38;;
23743;SDS011;12052;53.478;10.182;2023-06-22T13:34:58;6.07;;;3.05;;
23743;SDS011;12052;53.478;10.182;2023-06-22T13:37:25;4.30;;;3.03;;
23743;SDS011;12052;53.478;10.182;2023-06-22T13:39:51;5.68;;;3.08;;
23743;SDS011;12052;53.478;10.182;2023-06-22T13:42:16;5.43;;;3.42;;
23743;SDS011;12052;53.478;10.182;2023-06-22T13:44:42;3.45;;;3.00;;
23743;SDS011;12052;53.478;10.182;2023-06-22T13:47:07;3.85;;;2.88;;
23743;SDS011;12052;53.478;10.182;2023-06-22T13:49:33;3.97;;;2.88;;
23743;SDS011;12052;53.478;10.182;2023-06-22T13:51:59;3.65;;;2.80;;
23743;SDS011;12052;53.478;10.182;2023-06-22T13:54:25;4.35;;;3.13;;
23743;SDS011;12052;53.478;10.182;2023-06-22T13:56:50;3.85;;;3.00;;
23743;SDS011;12052;53.478;10.182;2023-06-22T13:59:16;3.95;;;3.05;;
23743;SDS011;12052;53.478;10.182;2023-06-22T14:01:41;4.78;;;3.55;;
23743;SDS011;12052;53.478;10.182;2023-06-22T14:04:08;4.20;;;3.13;;
23743;SDS011;12052;53.478;10.182;2023-06-22T14:06:34;5.90;;;3.45;;
23743;SDS011;12052;53.478;10.182;2023-06-22T14:08:59;3.67;;;2.85;;
23743;SDS011;12052;53.478;10.182;2023-06-22T14:11:25;6.18;;;3.33;;
23743;SDS011;12052;53.478;10.182;2023-06-22T14:13:51;4.03;;;3.40;;
23743;SDS011;12052;53.478;10.182;2023-06-22T14:16:17;3.67;;;3.10;;
23743;SDS011;12052;53.478;10.182;2023-06-22T14:18:42;3.70;;;3.30;;
23743;SDS011;12052;53.478;10.182;2023-06-22T14:21:08;3.83;;;3.05;;
23743;SDS011;12052;53.478;10.182;2023-06-22T14:23:33;5.25;;;3.05;;
23743;SDS011;12052;53.478;10.182;2023-06-22T14:25:59;4.63;;;3.38;;
23743;SDS011;12052;53.478;10.182;2023-06-22T14:28:25;4.45;;;2.92;;
23743;SDS011;12052;53.478;10.182;2023-06-22T14:30:50;4.30;;;2.92;;
23743;SDS011;12052;53.478;10.182;2023-06-22T14:33:16;6.03;;;3.03;;
23743;SDS011;12052;53.478;10.182;2023-06-22T14:35:41;4.88;;;3.10;;